sensor_id;sensor_type;location;lat;lon;timestamp;P1;durP1;ratioP1;P2;durP2;ratioP2
679;SDS011;322;48.846;9.230;2023-04-25T00:02:07;4.80;;;2.70;;
679;SDS011;322;48.846;9.230;2023-04-25T00:04:35;2.83;;;2.10;;
679;SDS011;322;48.846;9.230;2023-04-25T00:07:03;1.90;;;1.80;;
679;SDS011;322;48.846;9.230;2023-04-25T00:09:30;4.50;;;1.93;;
679;SDS011;322;48.846;9.230;2023-04-25T00:11:57;2.60;;;2.40;;
679;SDS011;322;48.846;9.230;2023-04-25T00:14:26;2.40;;;2.20;;
679;SDS011;322;48.846;9.230;2023-04-25T00:16:53;4.43;;;2.20;;
679;SDS011;322;48.846;9.230;2023-04-25T00:19:21;2.40;;;2.20;;
679;SDS011;322;48.846;9.230;2023-04-25T00:21:49;2.50;;;2.10;;
679;SDS011;322;48.846;9.230;2023-04-25T00:24:16;3.30;;;2.20;;
679;SDS011;322;48.846;9.230;2023-04-25T00:26:42;2.30;;;2.10;;
679;SDS011;322;48.846;9.230;2023-04-25T00:29:09;2.20;;;2.00;;
679;SDS011;322;48.846;9.230;2023-04-25T00:31:36;2.70;;;1.87;;
679;SDS011;322;48.846;9.230;2023-04-25T00:34:03;2.43;;;2.20;;
679;SDS011;322;48.846;9.230;2023-04-25T00:36:29;2.10;;;1.90;;
679;SDS011;322;48.846;9.230;2023-04-25T00:38:58;2.53;;;2.00;;
679;SDS011;322;48.846;9.230;2023-04-25T00:41:25;2.67;;;2.47;;
679;SDS011;322;48.846;9.230;2023-04-25T00:43:52;2.40;;;2.20;;
679;SDS011;322;48.846;9.230;2023-04-25T00:46:20;2.40;;;1.97;;
679;SDS011;322;48.846;9.230;2023-04-25T00:48:47;3.57;;;1.97;;
679;SDS011;322;48.846;9.230;2023-04-25T00:51:16;2.10;;;1.90;;
679;SDS011;322;48.846;9.230;2023-04-25T00:53:45;4.00;;;3.00;;
679;SDS011;322;48.846;9.230;2023-04-25T00:56:13;2.37;;;2.00;;
679;SDS011;322;48.846;9.230;2023-04-25T00:58:40;2.23;;;2.03;;
679;SDS011;322;48.846;9.230;2023-04-25T01:01:08;4.80;;;2.27;;
679;SDS011;322;48.846;9.230;2023-04-25T01:03:35;2.97;;;2.20;;
679;SDS011;322;48.846;9.230;2023-04-25T01:06:05;3.00;;;1.93;;
679;SDS011;322;48.846;9.230;2023-04-25T01:08:33;2.33;;;2.13;;
679;SDS011;322;48.846;9.230;2023-04-25T01:11:00;3.73;;;1.77;;
679;SDS011;322;48.846;9.230;2023-04-25T01:13:28;3.13;;;2.07;;
679;SDS011;322;48.846;9.230;2023-04-25T01:15:56;2.40;;;1.80;;
679;SDS011;322;48.846;9.230;2023-04-25T01:18:23;2.93;;;1.73;;
679;SDS011;322;48.846;9.230;2023-04-25T01:20:50;3.97;;;1.97;;
679;SDS011;322;48.846;9.230;2023-04-25T01:23:19;3.53;;;1.80;;
679;SDS011;322;48.846;9.230;2023-04-25T01:25:46;1.80;;;1.70;;
679;SDS011;322;48.846;9.230;2023-04-25T01:28:13;2.30;;;2.10;;
679;SDS011;322;48.846;9.230;2023-04-25T01:30:40;1.87;;;1.60;;
679;SDS011;322;48.846;9.230;2023-04-25T01:33:08;2.23;;;2.10;;
679;SDS011;322;48.846;9.230;2023-04-25T01:35:35;2.27;;;1.80;;
679;SDS011;322;48.846;9.230;2023-04-25T01:38:01;2.30;;;2.10;;
679;SDS011;322;48.846;9.230;2023-04-25T01:40:30;3.77;;;2.10;;
679;SDS011;322;48.846;9.230;2023-04-25T01:42:57;2.07;;;1.87;;
679;SDS011;322;48.846;9.230;2023-04-25T01:45:24;2.43;;;2.23;;
679;SDS011;322;48.846;9.230;2023-04-25T01:47:51;2.27;;;2.07;;
679;SDS011;322;48.846;9.230;2023-04-25T01:50:18;2.73;;;2.27;;
679;SDS011;322;48.846;9.230;2023-04-25T01:52:45;2.77;;;2.20;;
679;SDS011;322;48.846;9.230;2023-04-25T01:55:12;3.13;;;2.40;;
679;SDS011;322;48.846;9.230;2023-04-25T01:57:40;4.13;;;2.20;;
679;SDS011;322;48.846;9.230;2023-04-25T02:00:07;2.73;;;2.53;;
679;SDS011;322;48.846;9.230;2023-04-25T02:02:35;2.17;;;1.97;;
679;SDS011;322;48.846;9.230;2023-04-25T02:05:02;2.60;;;2.40;;
679;SDS011;322;48.846;9.230;2023-04-25T02:07:29;2.53;;;2.20;;
679;SDS011;322;48.846;9.230;2023-04-25T02:09:56;2.90;;;2.47;;
679;SDS011;322;48.846;9.230;2023-04-25T02:12:22;2.73;;;2.50;;
679;SDS011;322;48.846;9.230;2023-04-25T02:14:52;3.73;;;2.87;;
679;SDS011;322;48.846;9.230;2023-04-25T02:17:19;2.37;;;2.17;;
679;SDS011;322;48.846;9.230;2023-04-25T02:19:47;2.30;;;2.10;;
679;SDS011;322;48.846;9.230;2023-04-25T02:22:13;3.37;;;2.70;;
679;SDS011;322;48.846;9.230;2023-04-25T02:24:40;3.97;;;2.70;;
679;SDS011;322;48.846;9.230;2023-04-25T02:27:07;3.90;;;2.83;;
679;SDS011;322;48.846;9.230;2023-04-25T02:29:34;3.47;;;2.60;;
679;SDS011;322;48.846;9.230;2023-04-25T02:32:02;3.00;;;2.70;;
679;SDS011;322;48.846;9.230;2023-04-25T02:34:30;3.57;;;3.27;;
679;SDS011;322;48.846;9.230;2023-04-25T02:36:56;4.07;;;3.70;;
679;SDS011;322;48.846;9.230;2023-04-25T02:39:23;3.20;;;2.90;;
679;SDS011;322;48.846;9.230;2023-04-25T02:41:52;3.77;;;3.43;;
679;SDS011;322;48.846;9.230;2023-04-25T02:44:19;4.57;;;3.50;;
679;SDS011;322;48.846;9.230;2023-04-25T02:46:46;4.80;;;3.33;;
679;SDS011;322;48.846;9.230;2023-04-25T02:49:14;3.83;;;3.30;;
679;SDS011;322;48.846;9.230;2023-04-25T02:51:41;4.77;;;3.20;;
679;SDS011;322;48.846;9.230;2023-04-25T02:54:07;4.20;;;3.50;;
679;SDS011;322;48.846;9.230;2023-04-25T02:56:34;3.43;;;3.13;;
679;SDS011;322;48.846;9.230;2023-04-25T02:59:01;5.10;;;3.90;;
679;SDS011;322;48.846;9.230;2023-04-25T03:01:28;3.40;;;3.10;;
679;SDS011;322;48.846;9.230;2023-04-25T03:03:55;5.30;;;3.00;;
679;SDS011;322;48.846;9.230;2023-04-25T03:06:23;4.40;;;3.70;;
679;SDS011;322;48.846;9.230;2023-04-25T03:08:50;3.80;;;3.50;;
679;SDS011;322;48.846;9.230;2023-04-25T03:11:16;5.50;;;3.70;;
679;SDS011;322;48.846;9.230;2023-04-25T03:13:45;3.83;;;3.43;;
679;SDS011;322;48.846;9.230;2023-04-25T03:16:11;4.50;;;3.90;;
679;SDS011;322;48.846;9.230;2023-04-25T03:18:38;4.33;;;3.23;;
679;SDS011;322;48.846;9.230;2023-04-25T03:21:05;4.17;;;3.80;;
679;SDS011;322;48.846;9.230;2023-04-25T03:23:33;4.73;;;3.13;;
679;SDS011;322;48.846;9.230;2023-04-25T03:26:00;3.57;;;3.30;;
679;SDS011;322;48.846;9.230;2023-04-25T03:28:27;6.67;;;6.07;;
679;SDS011;322;48.846;9.230;2023-04-25T03:30:54;3.67;;;3.37;;
679;SDS011;322;48.846;9.230;2023-04-25T03:33:21;4.07;;;3.77;;
679;SDS011;322;48.846;9.230;2023-04-25T03:35:48;3.90;;;3.60;;
679;SDS011;322;48.846;9.230;2023-04-25T03:38:15;4.23;;;3.83;;
679;SDS011;322;48.846;9.230;2023-04-25T03:40:44;3.60;;;3.30;;
679;SDS011;322;48.846;9.230;2023-04-25T03:43:11;4.03;;;3.63;;
679;SDS011;322;48.846;9.230;2023-04-25T03:45:37;4.20;;;3.90;;
679;SDS011;322;48.846;9.230;2023-04-25T03:48:04;4.33;;;3.93;;
679;SDS011;322;48.846;9.230;2023-04-25T03:50:31;3.97;;;3.67;;
679;SDS011;322;48.846;9.230;2023-04-25T03:52:58;5.37;;;3.80;;
679;SDS011;322;48.846;9.230;2023-04-25T03:55:25;4.13;;;3.50;;
679;SDS011;322;48.846;9.230;2023-04-25T03:57:53;4.30;;;3.90;;
679;SDS011;322;48.846;9.230;2023-04-25T04:00:19;6.20;;;3.87;;
679;SDS011;322;48.846;9.230;2023-04-25T04:02:46;3.97;;;3.63;;
679;SDS011;322;48.846;9.230;2023-04-25T04:05:13;3.90;;;3.50;;
679;SDS011;322;48.846;9.230;2023-04-25T04:07:40;6.50;;;4.10;;
679;SDS011;322;48.846;9.230;2023-04-25T04:10:08;5.07;;;4.57;;
679;SDS011;322;48.846;9.230;2023-04-25T04:12:36;4.50;;;4.10;;
679;SDS011;322;48.846;9.230;2023-04-25T04:15:04;5.73;;;4.77;;
679;SDS011;322;48.846;9.230;2023-04-25T04:17:32;6.30;;;4.30;;
679;SDS011;322;48.846;9.230;2023-04-25T04:19:59;5.23;;;4.70;;
679;SDS011;322;48.846;9.230;2023-04-25T04:22:26;5.50;;;4.30;;
679;SDS011;322;48.846;9.230;2023-04-25T04:24:53;6.07;;;4.50;;
679;SDS011;322;48.846;9.230;2023-04-25T04:27:21;5.03;;;4.53;;
679;SDS011;322;48.846;9.230;2023-04-25T04:29:49;5.70;;;5.20;;
679;SDS011;322;48.846;9.230;2023-04-25T04:32:18;5.10;;;4.50;;
679;SDS011;322;48.846;9.230;2023-04-25T04:34:45;5.37;;;4.83;;
679;SDS011;322;48.846;9.230;2023-04-25T04:37:13;5.07;;;4.60;;
679;SDS011;322;48.846;9.230;2023-04-25T04:39:40;4.70;;;4.30;;
679;SDS011;322;48.846;9.230;2023-04-25T04:42:07;4.77;;;4.27;;
679;SDS011;322;48.846;9.230;2023-04-25T04:44:36;4.80;;;4.40;;
679;SDS011;322;48.846;9.230;2023-04-25T04:47:04;5.83;;;4.97;;
679;SDS011;322;48.846;9.230;2023-04-25T04:49:32;3.93;;;3.63;;
679;SDS011;322;48.846;9.230;2023-04-25T04:51:59;8.07;;;4.83;;
679;SDS011;322;48.846;9.230;2023-04-25T04:54:26;4.60;;;4.20;;
679;SDS011;322;48.846;9.230;2023-04-25T04:56:53;4.00;;;3.60;;
679;SDS011;322;48.846;9.230;2023-04-25T04:59:20;5.30;;;4.80;;
679;SDS011;322;48.846;9.230;2023-04-25T05:01:47;4.40;;;4.00;;
679;SDS011;322;48.846;9.230;2023-04-25T05:04:13;6.73;;;3.83;;
679;SDS011;322;48.846;9.230;2023-04-25T05:06:42;5.03;;;3.87;;
679;SDS011;322;48.846;9.230;2023-04-25T05:09:09;4.10;;;3.70;;
679;SDS011;322;48.846;9.230;2023-04-25T05:11:36;3.97;;;3.67;;
679;SDS011;322;48.846;9.230;2023-04-25T05:14:02;7.40;;;3.70;;
679;SDS011;322;48.846;9.230;2023-04-25T05:16:29;4.57;;;4.17;;
679;SDS011;322;48.846;9.230;2023-04-25T05:18:56;6.00;;;3.90;;
679;SDS011;322;48.846;9.230;2023-04-25T05:21:23;4.57;;;4.10;;
679;SDS011;322;48.846;9.230;2023-04-25T05:23:51;3.47;;;3.17;;
679;SDS011;322;48.846;9.230;2023-04-25T05:26:18;4.50;;;3.90;;
679;SDS011;322;48.846;9.230;2023-04-25T05:28:45;5.47;;;5.07;;
679;SDS011;322;48.846;9.230;2023-04-25T05:31:12;5.10;;;4.57;;
679;SDS011;322;48.846;9.230;2023-04-25T05:33:39;4.53;;;4.13;;
679;SDS011;322;48.846;9.230;2023-04-25T05:36:06;4.50;;;4.10;;
679;SDS011;322;48.846;9.230;2023-04-25T05:38:34;5.30;;;4.80;;
679;SDS011;322;48.846;9.230;2023-04-25T05:41:02;5.07;;;4.57;;
679;SDS011;322;48.846;9.230;2023-04-25T05:43:29;5.60;;;5.10;;
679;SDS011;322;48.846;9.230;2023-04-25T05:45:56;4.93;;;4.40;;
679;SDS011;322;48.846;9.230;2023-04-25T05:48:22;6.13;;;5.53;;
679;SDS011;322;48.846;9.230;2023-04-25T05:50:49;5.70;;;5.20;;
679;SDS011;322;48.846;9.230;2023-04-25T05:53:16;7.80;;;6.20;;
679;SDS011;322;48.846;9.230;2023-04-25T05:55:43;7.40;;;5.70;;
679;SDS011;322;48.846;9.230;2023-04-25T05:58:12;6.43;;;5.57;;
679;SDS011;322;48.846;9.230;2023-04-25T06:00:38;6.27;;;5.67;;
679;SDS011;322;48.846;9.230;2023-04-25T06:03:06;7.20;;;6.20;;
679;SDS011;322;48.846;9.230;2023-04-25T06:05:34;6.17;;;5.57;;
679;SDS011;322;48.846;9.230;2023-04-25T06:08:01;5.77;;;5.20;;
679;SDS011;322;48.846;9.230;2023-04-25T06:10:28;6.70;;;5.47;;
679;SDS011;322;48.846;9.230;2023-04-25T06:12:55;5.03;;;4.53;;
679;SDS011;322;48.846;9.230;2023-04-25T06:15:23;6.07;;;5.50;;
679;SDS011;322;48.846;9.230;2023-04-25T06:17:50;5.57;;;5.00;;
679;SDS011;322;48.846;9.230;2023-04-25T06:20:17;5.20;;;4.73;;
679;SDS011;322;48.846;9.230;2023-04-25T06:22:47;5.27;;;4.83;;
679;SDS011;322;48.846;9.230;2023-04-25T06:25:14;5.97;;;5.37;;
679;SDS011;322;48.846;9.230;2023-04-25T06:27:41;5.60;;;5.10;;
679;SDS011;322;48.846;9.230;2023-04-25T06:30:09;4.50;;;4.10;;
679;SDS011;322;48.846;9.230;2023-04-25T06:32:38;4.43;;;4.03;;
679;SDS011;322;48.846;9.230;2023-04-25T06:35:05;4.60;;;4.20;;
679;SDS011;322;48.846;9.230;2023-04-25T06:37:33;4.50;;;4.10;;
679;SDS011;322;48.846;9.230;2023-04-25T06:40:00;4.13;;;3.83;;
679;SDS011;322;48.846;9.230;2023-04-25T06:42:27;6.37;;;5.27;;
679;SDS011;322;48.846;9.230;2023-04-25T06:44:54;5.03;;;4.63;;
679;SDS011;322;48.846;9.230;2023-04-25T06:47:21;4.30;;;3.80;;
679;SDS011;322;48.846;9.230;2023-04-25T06:49:49;4.50;;;4.10;;
679;SDS011;322;48.846;9.230;2023-04-25T06:52:16;4.80;;;4.40;;
679;SDS011;322;48.846;9.230;2023-04-25T06:54:43;5.70;;;4.00;;
679;SDS011;322;48.846;9.230;2023-04-25T06:57:10;4.43;;;4.03;;
679;SDS011;322;48.846;9.230;2023-04-25T06:59:37;4.33;;;3.93;;
679;SDS011;322;48.846;9.230;2023-04-25T07:02:04;4.77;;;4.37;;
679;SDS011;322;48.846;9.230;2023-04-25T07:04:31;4.83;;;4.30;;
679;SDS011;322;48.846;9.230;2023-04-25T07:06:59;4.70;;;4.30;;
679;SDS011;322;48.846;9.230;2023-04-25T07:09:27;4.83;;;4.43;;
679;SDS011;322;48.846;9.230;2023-04-25T07:11:54;4.27;;;3.80;;
679;SDS011;322;48.846;9.230;2023-04-25T07:14:22;5.20;;;4.60;;
679;SDS011;322;48.846;9.230;2023-04-25T07:16:49;5.57;;;5.07;;
679;SDS011;322;48.846;9.230;2023-04-25T07:19:15;5.50;;;5.00;;
679;SDS011;322;48.846;9.230;2023-04-25T07:21:42;6.80;;;6.20;;
679;SDS011;322;48.846;9.230;2023-04-25T07:24:10;4.77;;;4.27;;
679;SDS011;322;48.846;9.230;2023-04-25T07:26:37;5.77;;;5.17;;
679;SDS011;322;48.846;9.230;2023-04-25T07:29:04;5.97;;;5.47;;
679;SDS011;322;48.846;9.230;2023-04-25T07:31:31;5.33;;;4.83;;
679;SDS011;322;48.846;9.230;2023-04-25T07:33:58;5.37;;;4.50;;
679;SDS011;322;48.846;9.230;2023-04-25T07:36:24;6.63;;;5.70;;
679;SDS011;322;48.846;9.230;2023-04-25T07:38:52;5.23;;;4.70;;
679;SDS011;322;48.846;9.230;2023-04-25T07:41:20;6.43;;;5.93;;
679;SDS011;322;48.846;9.230;2023-04-25T07:43:47;5.50;;;5.00;;
679;SDS011;322;48.846;9.230;2023-04-25T07:46:14;6.73;;;5.03;;
679;SDS011;322;48.846;9.230;2023-04-25T07:48:40;7.17;;;5.20;;
679;SDS011;322;48.846;9.230;2023-04-25T07:51:07;6.70;;;5.57;;
679;SDS011;322;48.846;9.230;2023-04-25T07:53:34;6.77;;;6.10;;
679;SDS011;322;48.846;9.230;2023-04-25T07:56:02;5.97;;;5.47;;
679;SDS011;322;48.846;9.230;2023-04-25T07:58:31;6.13;;;5.40;;
679;SDS011;322;48.846;9.230;2023-04-25T08:00:57;7.00;;;6.30;;
679;SDS011;322;48.846;9.230;2023-04-25T08:03:25;7.30;;;6.60;;
679;SDS011;322;48.846;9.230;2023-04-25T08:05:51;7.90;;;7.10;;
679;SDS011;322;48.846;9.230;2023-04-25T08:08:18;8.87;;;7.13;;
679;SDS011;322;48.846;9.230;2023-04-25T08:10:45;8.07;;;7.27;;
679;SDS011;322;48.846;9.230;2023-04-25T08:13:13;10.40;;;7.77;;
679;SDS011;322;48.846;9.230;2023-04-25T08:15:41;10.20;;;7.23;;
679;SDS011;322;48.846;9.230;2023-04-25T08:18:08;8.70;;;7.90;;
679;SDS011;322;48.846;9.230;2023-04-25T08:20:35;8.57;;;7.67;;
679;SDS011;322;48.846;9.230;2023-04-25T08:23:02;10.13;;;8.90;;
679;SDS011;322;48.846;9.230;2023-04-25T08:25:28;8.93;;;8.03;;
679;SDS011;322;48.846;9.230;2023-04-25T08:27:55;8.80;;;7.90;;
679;SDS011;322;48.846;9.230;2023-04-25T08:30:24;10.40;;;9.30;;
679;SDS011;322;48.846;9.230;2023-04-25T08:32:53;11.50;;;10.13;;
679;SDS011;322;48.846;9.230;2023-04-25T08:35:20;10.30;;;9.30;;
679;SDS011;322;48.846;9.230;2023-04-25T08:37:47;11.87;;;8.90;;
679;SDS011;322;48.846;9.230;2023-04-25T08:40:14;9.90;;;8.93;;
679;SDS011;322;48.846;9.230;2023-04-25T08:42:41;9.20;;;8.30;;
679;SDS011;322;48.846;9.230;2023-04-25T08:45:09;11.97;;;9.03;;
679;SDS011;322;48.846;9.230;2023-04-25T08:47:37;8.23;;;7.43;;
679;SDS011;322;48.846;9.230;2023-04-25T08:50:07;9.37;;;8.47;;
679;SDS011;322;48.846;9.230;2023-04-25T08:52:35;8.97;;;8.17;;
679;SDS011;322;48.846;9.230;2023-04-25T08:55:05;8.47;;;7.37;;
679;SDS011;322;48.846;9.230;2023-04-25T08:57:35;9.23;;;7.00;;
679;SDS011;322;48.846;9.230;2023-04-25T09:00:03;8.87;;;7.97;;
679;SDS011;322;48.846;9.230;2023-04-25T09:02:33;9.10;;;8.10;;
679;SDS011;322;48.846;9.230;2023-04-25T09:05:00;12.17;;;10.10;;
679;SDS011;322;48.846;9.230;2023-04-25T09:07:30;11.07;;;9.90;;
679;SDS011;322;48.846;9.230;2023-04-25T09:09:57;9.77;;;8.80;;
679;SDS011;322;48.846;9.230;2023-04-25T09:12:24;10.93;;;9.30;;
679;SDS011;322;48.846;9.230;2023-04-25T09:15:01;10.27;;;8.67;;
679;SDS011;322;48.846;9.230;2023-04-25T09:17:30;8.80;;;7.90;;
679;SDS011;322;48.846;9.230;2023-04-25T09:20:04;10.33;;;8.70;;
679;SDS011;322;48.846;9.230;2023-04-25T09:22:37;9.23;;;8.33;;
679;SDS011;322;48.846;9.230;2023-04-25T09:25:07;11.43;;;8.50;;
679;SDS011;322;48.846;9.230;2023-04-25T09:27:35;8.87;;;8.07;;
679;SDS011;322;48.846;9.230;2023-04-25T09:30:02;9.23;;;8.40;;
679;SDS011;322;48.846;9.230;2023-04-25T09:32:30;11.90;;;10.53;;
679;SDS011;322;48.846;9.230;2023-04-25T09:35:00;12.80;;;10.20;;
679;SDS011;322;48.846;9.230;2023-04-25T09:37:27;11.97;;;10.77;;
679;SDS011;322;48.846;9.230;2023-04-25T09:39:57;9.13;;;8.33;;
679;SDS011;322;48.846;9.230;2023-04-25T09:42:27;10.37;;;7.97;;
679;SDS011;322;48.846;9.230;2023-04-25T09:44:56;8.83;;;8.03;;
679;SDS011;322;48.846;9.230;2023-04-25T09:47:26;10.87;;;9.73;;
679;SDS011;322;48.846;9.230;2023-04-25T09:49:54;12.83;;;10.83;;
679;SDS011;322;48.846;9.230;2023-04-25T09:52:22;10.37;;;9.37;;
679;SDS011;322;48.846;9.230;2023-04-25T09:54:50;10.97;;;9.87;;
679;SDS011;322;48.846;9.230;2023-04-25T09:57:19;12.90;;;11.77;;
679;SDS011;322;48.846;9.230;2023-04-25T09:59:47;9.30;;;8.40;;
679;SDS011;322;48.846;9.230;2023-04-25T10:02:16;8.63;;;7.40;;
679;SDS011;322;48.846;9.230;2023-04-25T10:04:44;11.33;;;6.37;;
679;SDS011;322;48.846;9.230;2023-04-25T10:07:15;6.67;;;6.07;;
679;SDS011;322;48.846;9.230;2023-04-25T10:09:43;7.00;;;6.37;;
679;SDS011;322;48.846;9.230;2023-04-25T10:12:13;6.17;;;5.60;;
679;SDS011;322;48.846;9.230;2023-04-25T10:14:41;5.93;;;5.33;;
679;SDS011;322;48.846;9.230;2023-04-25T10:17:10;7.97;;;6.00;;
679;SDS011;322;48.846;9.230;2023-04-25T10:19:37;7.70;;;6.03;;
679;SDS011;322;48.846;9.230;2023-04-25T10:22:06;7.27;;;5.47;;
679;SDS011;322;48.846;9.230;2023-04-25T10:24:38;7.27;;;6.57;;
679;SDS011;322;48.846;9.230;2023-04-25T10:27:05;7.27;;;6.57;;
679;SDS011;322;48.846;9.230;2023-04-25T10:29:33;7.37;;;6.67;;
679;SDS011;322;48.846;9.230;2023-04-25T10:32:02;7.63;;;6.47;;
679;SDS011;322;48.846;9.230;2023-04-25T10:34:40;7.40;;;6.70;;
679;SDS011;322;48.846;9.230;2023-04-25T10:37:11;8.47;;;6.80;;
679;SDS011;322;48.846;9.230;2023-04-25T10:39:38;7.80;;;6.87;;
679;SDS011;322;48.846;9.230;2023-04-25T10:42:06;8.97;;;7.90;;
679;SDS011;322;48.846;9.230;2023-04-25T10:44:34;8.97;;;7.50;;
679;SDS011;322;48.846;9.230;2023-04-25T10:47:05;8.60;;;7.37;;
679;SDS011;322;48.846;9.230;2023-04-25T10:49:34;9.10;;;8.20;;
679;SDS011;322;48.846;9.230;2023-04-25T10:52:11;10.77;;;8.93;;
679;SDS011;322;48.846;9.230;2023-04-25T10:54:41;8.87;;;7.23;;
679;SDS011;322;48.846;9.230;2023-04-25T10:59:58;8.80;;;7.40;;
679;SDS011;322;48.846;9.230;2023-04-25T11:02:31;8.37;;;6.77;;
679;SDS011;322;48.846;9.230;2023-04-25T11:05:02;7.43;;;6.50;;
679;SDS011;322;48.846;9.230;2023-04-25T11:07:33;10.00;;;6.60;;
679;SDS011;322;48.846;9.230;2023-04-25T11:10:03;6.70;;;6.10;;
679;SDS011;322;48.846;9.230;2023-04-25T11:12:31;9.00;;;6.17;;
679;SDS011;322;48.846;9.230;2023-04-25T11:14:59;6.47;;;5.80;;
679;SDS011;322;48.846;9.230;2023-04-25T11:17:27;6.50;;;5.87;;
679;SDS011;322;48.846;9.230;2023-04-25T11:19:56;6.90;;;4.87;;
679;SDS011;322;48.846;9.230;2023-04-25T11:22:23;6.03;;;5.43;;
679;SDS011;322;48.846;9.230;2023-04-25T11:24:50;5.20;;;4.70;;
679;SDS011;322;48.846;9.230;2023-04-25T11:27:17;6.53;;;5.23;;
679;SDS011;322;48.846;9.230;2023-04-25T11:29:44;5.93;;;5.43;;
679;SDS011;322;48.846;9.230;2023-04-25T11:32:12;5.53;;;4.97;;
679;SDS011;322;48.846;9.230;2023-04-25T11:34:42;6.00;;;4.50;;
679;SDS011;322;48.846;9.230;2023-04-25T11:37:11;5.87;;;5.27;;
679;SDS011;322;48.846;9.230;2023-04-25T11:39:42;4.90;;;4.40;;
679;SDS011;322;48.846;9.230;2023-04-25T11:42:10;5.40;;;4.90;;
679;SDS011;322;48.846;9.230;2023-04-25T11:44:37;5.40;;;4.90;;
679;SDS011;322;48.846;9.230;2023-04-25T11:47:05;6.43;;;5.77;;
679;SDS011;322;48.846;9.230;2023-04-25T11:49:32;5.37;;;4.87;;
679;SDS011;322;48.846;9.230;2023-04-25T11:52:00;5.50;;;5.00;;
679;SDS011;322;48.846;9.230;2023-04-25T11:54:28;5.17;;;4.67;;
679;SDS011;322;48.846;9.230;2023-04-25T11:56:55;4.90;;;4.50;;
679;SDS011;322;48.846;9.230;2023-04-25T11:59:22;6.20;;;5.60;;
679;SDS011;322;48.846;9.230;2023-04-25T12:01:51;5.70;;;5.20;;
679;SDS011;322;48.846;9.230;2023-04-25T12:04:19;7.00;;;6.30;;
679;SDS011;322;48.846;9.230;2023-04-25T12:06:47;5.07;;;4.67;;
679;SDS011;322;48.846;9.230;2023-04-25T12:09:16;5.53;;;4.83;;
679;SDS011;322;48.846;9.230;2023-04-25T12:11:45;7.00;;;6.30;;
679;SDS011;322;48.846;9.230;2023-04-25T12:14:20;5.50;;;4.97;;
679;SDS011;322;48.846;9.230;2023-04-25T12:16:49;8.90;;;5.77;;
679;SDS011;322;48.846;9.230;2023-04-25T12:19:16;6.80;;;6.07;;
679;SDS011;322;48.846;9.230;2023-04-25T12:21:44;8.07;;;7.17;;
679;SDS011;322;48.846;9.230;2023-04-25T12:24:11;7.33;;;6.63;;
679;SDS011;322;48.846;9.230;2023-04-25T12:26:47;5.97;;;5.27;;
679;SDS011;322;48.846;9.230;2023-04-25T12:29:16;6.40;;;5.33;;
679;SDS011;322;48.846;9.230;2023-04-25T12:31:46;5.90;;;5.30;;
679;SDS011;322;48.846;9.230;2023-04-25T12:34:14;7.07;;;6.40;;
679;SDS011;322;48.846;9.230;2023-04-25T12:36:41;7.10;;;6.40;;
679;SDS011;322;48.846;9.230;2023-04-25T12:39:08;6.87;;;6.20;;
679;SDS011;322;48.846;9.230;2023-04-25T12:41:40;8.10;;;7.20;;
679;SDS011;322;48.846;9.230;2023-04-25T12:44:09;8.27;;;6.83;;
679;SDS011;322;48.846;9.230;2023-04-25T12:46:36;7.77;;;7.00;;
679;SDS011;322;48.846;9.230;2023-04-25T12:49:03;6.20;;;5.60;;
679;SDS011;322;48.846;9.230;2023-04-25T12:51:31;7.67;;;6.63;;
679;SDS011;322;48.846;9.230;2023-04-25T12:53:58;7.93;;;6.27;;
679;SDS011;322;48.846;9.230;2023-04-25T12:56:25;10.40;;;5.93;;
679;SDS011;322;48.846;9.230;2023-04-25T12:58:52;6.53;;;5.93;;
679;SDS011;322;48.846;9.230;2023-04-25T13:01:20;8.60;;;6.40;;
679;SDS011;322;48.846;9.230;2023-04-25T13:03:47;6.90;;;6.20;;
679;SDS011;322;48.846;9.230;2023-04-25T13:06:15;7.20;;;6.60;;
679;SDS011;322;48.846;9.230;2023-04-25T13:08:42;7.73;;;6.93;;
679;SDS011;322;48.846;9.230;2023-04-25T13:11:09;8.60;;;7.80;;
679;SDS011;322;48.846;9.230;2023-04-25T13:13:36;7.07;;;6.37;;
679;SDS011;322;48.846;9.230;2023-04-25T13:16:05;7.53;;;6.73;;
679;SDS011;322;48.846;9.230;2023-04-25T13:18:34;9.27;;;6.30;;
679;SDS011;322;48.846;9.230;2023-04-25T13:21:01;7.20;;;6.57;;
679;SDS011;322;48.846;9.230;2023-04-25T13:23:29;7.87;;;6.70;;
679;SDS011;322;48.846;9.230;2023-04-25T13:25:56;7.20;;;6.50;;
679;SDS011;322;48.846;9.230;2023-04-25T13:28:24;7.90;;;7.10;;
679;SDS011;322;48.846;9.230;2023-04-25T13:30:51;8.60;;;7.10;;
679;SDS011;322;48.846;9.230;2023-04-25T13:33:18;7.60;;;6.80;;
679;SDS011;322;48.846;9.230;2023-04-25T13:35:46;9.90;;;8.03;;
679;SDS011;322;48.846;9.230;2023-04-25T13:38:18;8.63;;;7.83;;
679;SDS011;322;48.846;9.230;2023-04-25T13:40:46;11.03;;;9.87;;
679;SDS011;322;48.846;9.230;2023-04-25T13:43:13;13.13;;;9.97;;
679;SDS011;322;48.846;9.230;2023-04-25T13:45:40;10.70;;;9.63;;
679;SDS011;322;48.846;9.230;2023-04-25T13:48:07;11.83;;;10.67;;
679;SDS011;322;48.846;9.230;2023-04-25T13:50:34;12.83;;;11.33;;
679;SDS011;322;48.846;9.230;2023-04-25T13:53:02;11.70;;;10.50;;
679;SDS011;322;48.846;9.230;2023-04-25T13:55:29;12.40;;;11.20;;
679;SDS011;322;48.846;9.230;2023-04-25T13:57:56;14.70;;;12.03;;
679;SDS011;322;48.846;9.230;2023-04-25T14:00:23;11.00;;;9.90;;
679;SDS011;322;48.846;9.230;2023-04-25T14:02:50;10.93;;;9.60;;
679;SDS011;322;48.846;9.230;2023-04-25T14:05:18;9.47;;;8.57;;
679;SDS011;322;48.846;9.230;2023-04-25T14:07:45;10.03;;;9.00;;
679;SDS011;322;48.846;9.230;2023-04-25T14:10:13;8.93;;;8.17;;
679;SDS011;322;48.846;9.230;2023-04-25T14:12:40;11.30;;;9.20;;
679;SDS011;322;48.846;9.230;2023-04-25T14:15:07;10.30;;;7.70;;
679;SDS011;322;48.846;9.230;2023-04-25T14:17:35;11.47;;;8.17;;
679;SDS011;322;48.846;9.230;2023-04-25T14:20:02;8.90;;;8.10;;
679;SDS011;322;48.846;9.230;2023-04-25T14:22:31;12.00;;;8.27;;
679;SDS011;322;48.846;9.230;2023-04-25T14:24:57;8.83;;;7.93;;
679;SDS011;322;48.846;9.230;2023-04-25T14:27:26;10.13;;;8.47;;
679;SDS011;322;48.846;9.230;2023-04-25T14:29:53;9.63;;;8.00;;
679;SDS011;322;48.846;9.230;2023-04-25T14:32:19;7.67;;;6.97;;
679;SDS011;322;48.846;9.230;2023-04-25T14:34:46;8.87;;;8.07;;
679;SDS011;322;48.846;9.230;2023-04-25T14:37:13;7.37;;;6.50;;
679;SDS011;322;48.846;9.230;2023-04-25T14:39:41;8.40;;;7.50;;
679;SDS011;322;48.846;9.230;2023-04-25T14:42:08;8.93;;;7.67;;
679;SDS011;322;48.846;9.230;2023-04-25T14:44:37;8.30;;;7.50;;
679;SDS011;322;48.846;9.230;2023-04-25T14:47:04;7.80;;;7.00;;
679;SDS011;322;48.846;9.230;2023-04-25T14:49:31;8.17;;;7.37;;
679;SDS011;322;48.846;9.230;2023-04-25T14:51:58;7.30;;;6.60;;
679;SDS011;322;48.846;9.230;2023-04-25T14:54:26;11.23;;;10.10;;
679;SDS011;322;48.846;9.230;2023-04-25T14:56:53;7.53;;;6.83;;
679;SDS011;322;48.846;9.230;2023-04-25T14:59:19;9.53;;;8.73;;
679;SDS011;322;48.846;9.230;2023-04-25T15:01:48;10.90;;;8.10;;
679;SDS011;322;48.846;9.230;2023-04-25T15:04:15;8.23;;;7.47;;
679;SDS011;322;48.846;9.230;2023-04-25T15:06:43;7.80;;;7.00;;
679;SDS011;322;48.846;9.230;2023-04-25T15:09:10;8.33;;;7.53;;
679;SDS011;322;48.846;9.230;2023-04-25T15:11:36;6.60;;;5.97;;
679;SDS011;322;48.846;9.230;2023-04-25T15:14:03;7.80;;;6.33;;
679;SDS011;322;48.846;9.230;2023-04-25T15:16:30;7.40;;;5.47;;
679;SDS011;322;48.846;9.230;2023-04-25T15:18:58;5.17;;;4.73;;
679;SDS011;322;48.846;9.230;2023-04-25T15:21:29;8.20;;;5.87;;
679;SDS011;322;48.846;9.230;2023-04-25T15:23:56;7.00;;;5.03;;
679;SDS011;322;48.846;9.230;2023-04-25T15:26:23;6.60;;;5.63;;
679;SDS011;322;48.846;9.230;2023-04-25T15:28:50;6.33;;;5.43;;
679;SDS011;322;48.846;9.230;2023-04-25T15:31:17;6.50;;;5.87;;
679;SDS011;322;48.846;9.230;2023-04-25T15:33:44;6.47;;;5.87;;
679;SDS011;322;48.846;9.230;2023-04-25T15:36:14;7.20;;;5.67;;
679;SDS011;322;48.846;9.230;2023-04-25T15:38:41;7.40;;;6.43;;
679;SDS011;322;48.846;9.230;2023-04-25T15:41:08;10.60;;;6.40;;
679;SDS011;322;48.846;9.230;2023-04-25T15:43:35;7.40;;;6.60;;
679;SDS011;322;48.846;9.230;2023-04-25T15:46:03;7.50;;;6.77;;
679;SDS011;322;48.846;9.230;2023-04-25T15:48:30;8.50;;;6.40;;